Time;durP1;ratioP1;P1;durP2;ratioP2;P2;SDS_P1;SDS_P2;PMS_P1;PMS_P2;Temp;Humidity;BMP_temperature;BMP_pressure;BME280_temperature;BME280_humidity;BME280_pressure;Samples;Min_cycle;Max_cycle;Signal;HPM_P1;HPM_P2
2022/05/20 00:20:04;;;;;;;;;;;;;;;;;;;;;
2022/05/20 00:26:51;;;;;;;;;;;;;;;;;;;;;
2022/05/20 00:37:26;;;;;;;;;;;;;;;;;;;;;
2022/05/20 00:40:27;;;;;;;1.13;0.70;;;;;;;13.81;62.47;100036.81;5754629;24;20244;-93
2022/05/20 00:47:28;;;;;;;;;;;;;;;;;;;;;
2022/05/20 00:49:51;;;;;;;1.50;0.80;;;;;;;13.84;61.93;100039.31;6129196;23;20181;-93
2022/05/20 00:52:35;;;;;;;;;;;;;;;;;;;;;
2022/05/20 00:55:20;;;;;;;1.13;0.63;;;;;;;13.53;64.40;100036.53;6160321;23;20221;-94
2022/05/20 00:58:00;;;;;;;0.90;0.57;;;;;;;13.57;64.19;100033.66;6157218;23;20178;-93
2022/05/20 01:04:42;;;;;;;;;;;;;;;;;;;;;
2022/05/20 01:10:54;;;;;;;;;;;;;;;;;;;;;
2022/05/20 01:14:13;;;;;;;;;;;;;;;;;;;;;
2022/05/20 01:16:59;;;;;;;;;;;;;;;;;;;;;
2022/05/20 01:19:39;;;;;;;1.43;0.77;;;;;;;13.11;65.51;100036.00;6158330;23;20220;-95
2022/05/20 01:22:20;;;;;;;;;;;;;;;;;;;;;
2022/05/20 01:25:07;;;;;;;0.97;0.77;;;;;;;12.89;66.17;100041.44;6157487;23;20528;-92
2022/05/20 01:28:03;;;;;;;;;;;;;;;;;;;;;
2022/05/20 01:31:17;;;;;;;;;;;;;;;;;;;;;
2022/05/20 01:37:54;;;;;;;;;;;;;;;;;;;;;
2022/05/20 01:44:01;;;;;;;1.87;0.80;;;;;;;12.92;65.70;100041.28;6140909;23;20168;-92
2022/05/20 01:46:46;;;;;;;1.10;0.70;;;;;;;12.90;66.29;100046.63;6155932;23;20169;-93
2022/05/20 01:49:37;;;;;;;1.60;0.83;;;;;;;12.95;65.67;100041.97;6156374;23;20165;-91
2022/05/20 01:52:14;;;;;;;2.07;0.87;;;;;;;12.83;66.01;100041.72;6156125;23;20174;-92
2022/05/20 01:58:22;;;;;;;0.87;0.60;;;;;;;12.60;66.00;100048.06;6157161;23;20231;-95
2022/05/20 02:00:44;;;;;;;3.83;0.80;;;;;;;12.55;66.48;100050.03;6153489;23;20192;-96
2022/05/20 02:03:45;;;;;;;2.03;0.77;;;;;;;12.66;66.32;100049.53;6156116;23;20158;-93
2022/05/20 02:06:31;;;;;;;;;;;;;;;;;;;;;
2022/05/20 02:09:40;;;;;;;;;;;;;;;;;;;;;
2022/05/20 02:12:46;;;;;;;;;;;;;;;;;;;;;
2022/05/20 02:15:43;;;;;;;3.13;0.80;;;;;;;12.74;66.04;100040.38;6157804;23;20216;-94
2022/05/20 02:18:57;;;;;;;;;;;;;;;;;;;;;
2022/05/20 02:22:19;;;;;;;;;;;;;;;;;;;;;
2022/05/20 02:24:54;;;;;;;0.87;0.50;;;;;;;12.35;67.14;100047.47;6151787;23;20156;-93
2022/05/20 02:27:46;;;;;;;0.90;0.53;;;;;;;12.21;67.65;100039.38;6156751;23;20181;-95
2022/05/20 02:30:36;;;;;;;0.47;0.40;;;;;;;12.22;67.97;100043.69;6155636;23;20235;-95
2022/05/20 02:33:39;;;;;;;1.90;0.80;;;;;;;12.07;68.61;100042.59;6156064;23;20161;-94
2022/05/20 02:36:12;;;;;;;1.40;0.60;;;;;;;12.18;68.61;100050.00;6142778;23;20242;-94
2022/05/20 02:38:37;;;;;;;2.00;0.80;;;;;;;12.19;68.12;100042.03;6155950;23;20170;-95
2022/05/20 02:41:05;;;;;;;2.20;1.67;;;;;;;12.22;68.03;100048.94;6156219;23;20583;-92
2022/05/20 02:43:34;;;;;;;1.83;0.80;;;;;;;12.09;68.62;100050.41;6155591;23;20486;-94
2022/05/20 02:46:05;;;;;;;1.93;1.07;;;;;;;12.23;68.08;100045.41;6155696;23;20152;-93
2022/05/20 02:48:51;;;;;;;1.43;0.80;;;;;;;12.33;67.44;100044.06;6156473;23;20182;-93
2022/05/20 02:51:28;;;;;;;5.03;0.87;;;;;;;12.27;67.77;100049.59;6154997;23;20568;-92
2022/05/20 02:53:56;;;;;;;1.90;0.80;;;;;;;12.29;67.92;100053.00;6155133;23;20214;-92
2022/05/20 02:56:44;;;;;;;2.80;1.80;;;;;;;12.14;68.36;100051.91;6155781;23;20586;-92
2022/05/20 03:04:44;;;;;;;2.30;1.00;;;;;;;12.23;69.25;100045.41;6156211;23;20215;-93
2022/05/20 03:07:09;;;;;;;1.73;0.83;;;;;;;12.08;69.88;100048.72;6155112;23;20191;-92
2022/05/20 03:09:38;;;;;;;3.40;0.60;;;;;;;12.21;69.50;100053.34;6155888;23;20184;-94
2022/05/20 03:12:18;;;;;;;1.70;1.00;;;;;;;12.25;68.91;100051.44;6155612;23;20204;-93
2022/05/20 03:14:44;;;;;;;2.30;1.03;;;;;;;12.11;68.30;100059.06;6155249;23;20158;-90
2022/05/20 03:17:18;;;;;;;2.50;1.00;;;;;;;12.19;68.62;100055.19;6155235;23;20203;-93
2022/05/20 03:19:53;;;;;;;1.80;0.80;;;;;;;12.33;68.42;100060.69;6155523;23;20233;-92
2022/05/20 03:22:18;;;;;;;1.13;0.77;;;;;;;12.45;68.39;100055.81;6155289;23;20217;-93
2022/05/20 03:24:44;;;;;;;1.37;0.87;;;;;;;12.50;68.00;100057.28;6154955;23;20159;-93
2022/05/20 03:27:10;;;;;;;1.63;0.60;;;;;;;12.50;68.28;100056.44;6154849;23;20180;-93
2022/05/20 03:29:38;;;;;;;2.43;1.27;;;;;;;12.57;67.95;100052.59;6155018;23;20239;-93
2022/05/20 03:32:04;;;;;;;0.87;0.60;;;;;;;12.53;67.72;100051.88;6155418;23;20157;-94
2022/05/20 03:34:32;;;;;;;2.03;0.97;;;;;;;12.52;67.55;100063.34;6155247;23;20196;-92
2022/05/20 03:36:58;;;;;;;1.43;0.80;;;;;;;12.49;67.72;100066.13;6155824;23;20568;-93
2022/05/20 03:39:25;;;;;;;2.90;1.13;;;;;;;12.51;67.92;100064.25;6155079;23;20156;-93
2022/05/20 03:41:53;;;;;;;3.60;1.37;;;;;;;12.55;67.51;100065.81;6155270;23;20160;-93
2022/05/20 03:44:19;;;;;;;0.93;0.67;;;;;;;12.58;67.34;100065.69;6155329;23;20231;-93
2022/05/20 03:46:52;;;;;;;2.27;1.23;;;;;;;12.55;67.84;100071.06;6155185;23;20164;-94
2022/05/20 03:49:19;;;;;;;3.13;1.73;;;;;;;12.51;68.83;100077.41;6154909;23;20230;-92
2022/05/20 03:51:47;;;;;;;1.50;0.77;;;;;;;12.53;68.22;100067.66;6157909;23;20159;-92
2022/05/20 03:54:13;;;;;;;1.77;0.87;;;;;;;12.66;68.40;100068.81;6160132;23;20202;-91
2022/05/20 03:56:40;;;;;;;2.30;1.03;;;;;;;12.69;67.74;100070.44;6160671;23;20152;-92
2022/05/20 03:59:08;;;;;;;2.73;1.00;;;;;;;12.82;67.12;100064.53;6159779;23;20156;-90
2022/05/20 04:04:18;;;;;;;2.80;1.20;;;;;;;12.91;66.79;100074.66;6187753;23;20260;-91
2022/05/20 04:06:50;;;;;;;1.33;0.97;;;;;;;12.91;67.24;100071.16;6162078;23;20607;-92
2022/05/20 04:09:17;;;;;;;1.50;0.80;;;;;;;12.90;67.70;100074.69;6162194;23;20160;-92
2022/05/20 04:11:43;;;;;;;1.10;0.80;;;;;;;12.98;68.07;100074.34;6187477;23;20147;-92
2022/05/20 04:14:09;;;;;;;2.17;1.00;;;;;;;13.08;67.34;100071.22;6162105;23;20157;-93
2022/05/20 04:16:38;;;;;;;1.33;0.63;;;;;;;13.26;67.28;100069.50;6161791;23;20158;-92
2022/05/20 04:19:17;;;;;;;2.07;1.07;;;;;;;13.49;66.27;100077.13;6162156;23;20179;-92
2022/05/20 04:21:45;;;;;;;1.73;0.83;;;;;;;13.67;66.07;100070.94;6162330;23;20269;-92
2022/05/20 04:24:30;;;;;;;;;;;;;;;;;;;;;
2022/05/20 04:27:22;;;;;;;1.53;0.83;;;;;;;13.92;65.88;100071.41;6187294;23;20202;-91
2022/05/20 04:30:00;;;;;;;4.07;1.30;;;;;;;13.99;66.74;100078.03;6161573;23;20154;-92
2022/05/20 04:33:07;;;;;;;;;;;;;;;;;;;;;
2022/05/20 04:35:35;;;;;;;3.13;1.33;;;;;;;14.23;67.81;100075.91;6188419;23;20224;-91
2022/05/20 04:38:01;;;;;;;2.17;1.30;;;;;;;14.16;69.13;100075.41;6162165;23;20154;-91
2022/05/20 04:40:31;;;;;;;5.37;1.30;;;;;;;14.03;69.39;100079.59;6161357;23;20244;-91
2022/05/20 04:58:53;;;;;;;3.50;1.27;;;;;;;15.08;67.32;100068.66;6068478;23;20537;-93
2022/05/20 05:02:07;;;;;;;1.50;0.97;;;;;;;15.45;67.10;100070.94;6131963;23;20155;-93
2022/05/20 05:23:22;;;;;;;0.93;0.70;;;;;;;18.24;49.99;100059.25;5956188;24;20150;-92
2022/05/20 05:33:50;;;;;;;;;;;;;;;;;;;;;
2022/05/20 07:15:31;;;;;;;1.80;0.70;;;;;;;23.33;36.73;100067.13;6126071;23;20221;-92
2022/05/20 07:56:23;;;;;;;1.60;0.53;;;;;;;25.03;32.52;100075.06;6038102;23;20157;-93
2022/05/20 11:14:08;;;;;;;2.08;0.30;;;;;;;30.22;25.27;99860.22;6158057;23;20581;-91
2022/05/20 11:32:17;;;;;;;1.65;0.50;;;;;;;30.13;24.07;99837.88;6131877;23;20206;-93
2022/05/20 16:30:13;;;;;;;1.35;0.40;;;;;;;28.63;27.96;99534.06;6197638;23;20165;-94
